createdAt,value
2019-01-08T18:49:53.147Z,94.70
2019-01-08T18:52:21.379Z,95.11
2019-01-08T18:54:50.010Z,95.19
2019-01-08T18:57:18.419Z,95.00
2019-01-08T18:59:46.902Z,94.88
2019-01-08T19:02:15.170Z,94.77
2019-01-08T19:04:43.540Z,94.95
2019-01-08T19:07:11.788Z,94.62
2019-01-08T19:09:41.140Z,94.52
2019-01-08T19:12:17.068Z,94.55
2019-01-08T19:14:45.323Z,94.33
2019-01-08T19:17:13.620Z,93.91
2019-01-08T19:19:42.018Z,93.87
2019-01-08T19:22:10.344Z,93.97
2019-01-08T19:24:38.649Z,94.22
2019-01-08T19:27:07.074Z,94.16
2019-01-08T19:29:35.564Z,94.38
2019-01-08T19:32:03.853Z,94.17
2019-01-08T19:34:32.401Z,94.04
2019-01-08T19:37:00.860Z,93.59
2019-01-08T19:39:29.185Z,93.67
2019-01-08T19:41:57.554Z,93.86
2019-01-08T19:44:26.083Z,93.89
2019-01-08T19:46:54.456Z,93.55
2019-01-08T19:49:23.134Z,94.10
2019-01-08T19:51:51.538Z,93.62
2019-01-08T19:54:19.875Z,93.55
2019-01-08T19:56:48.274Z,93.81
2019-01-08T19:59:16.694Z,93.96
2019-01-08T20:01:44.960Z,93.69
2019-01-08T20:04:17.930Z,93.25
2019-01-08T20:06:44.177Z,92.26
2019-01-08T20:09:12.621Z,92.58
2019-01-08T20:11:44.230Z,91.86
2019-01-08T20:14:12.493Z,91.58
2019-01-08T20:16:40.807Z,91.67
2019-01-08T20:19:10.452Z,91.02
2019-01-08T20:21:38.796Z,91.41
2019-01-08T20:24:07.185Z,91.21
2019-01-08T20:26:35.581Z,91.33
2019-01-08T20:29:03.870Z,91.55
2019-01-08T20:31:32.347Z,91.09
2019-01-08T20:34:01.095Z,91.62
2019-01-08T20:36:29.408Z,90.93
2019-01-08T20:38:57.845Z,90.63
2019-01-08T20:41:26.172Z,90.95
2019-01-08T20:43:54.692Z,91.74
2019-01-08T20:46:23.031Z,91.40
2019-01-08T20:48:51.437Z,91.13
2019-01-08T20:51:20.980Z,91.36
2019-01-08T20:53:49.519Z,91.78
2019-01-08T20:56:18.131Z,91.09
2019-01-08T20:58:46.422Z,91.42
2019-01-08T21:01:15.039Z,91.19
2019-01-08T21:03:43.380Z,91.27
2019-01-08T21:06:11.662Z,91.05
2019-01-08T21:08:40.748Z,91.11
2019-01-08T21:11:09.269Z,90.19
2019-01-08T21:13:37.605Z,90.95
2019-01-08T21:16:05.887Z,90.83
2019-01-08T21:18:34.271Z,90.27
2019-01-08T21:21:02.712Z,90.65
2019-01-08T21:23:30.994Z,90.49
2019-01-08T21:25:59.340Z,90.54
2019-01-08T21:28:27.663Z,90.29
2019-01-08T21:30:56.022Z,90.86
2019-01-08T21:33:24.450Z,90.68
2019-01-08T21:35:52.675Z,90.92
2019-01-08T21:38:20.938Z,90.37
2019-01-08T21:40:49.332Z,90.20
2019-01-08T21:43:17.600Z,90.56
2019-01-08T21:45:45.867Z,90.16
2019-01-08T21:48:14.205Z,89.53
2019-01-08T21:50:42.484Z,88.75
2019-01-08T21:53:10.765Z,89.32
2019-01-08T21:55:39.237Z,89.09
2019-01-08T21:58:07.566Z,89.75
2019-01-08T22:00:35.804Z,89.29
2019-01-08T22:03:04.216Z,88.73
2019-01-08T22:05:32.587Z,88.35
2019-01-08T22:08:00.851Z,88.29
2019-01-08T22:10:29.240Z,87.77
2019-01-08T22:12:57.491Z,87.74
2019-01-08T22:15:25.795Z,88.22
2019-01-08T22:17:54.179Z,88.04
2019-01-08T22:20:22.802Z,88.57
2019-01-08T22:22:52.697Z,87.90
2019-01-08T22:25:21.255Z,87.36
2019-01-08T22:27:49.512Z,87.82
2019-01-08T22:30:17.804Z,87.58
2019-01-08T22:32:46.121Z,87.46
2019-01-08T22:35:14.431Z,87.81
2019-01-08T22:37:42.676Z,87.12
2019-01-08T22:40:11.165Z,87.23
2019-01-08T22:42:39.459Z,87.03
2019-01-08T22:45:08.160Z,87.29
2019-01-08T22:47:36.555Z,88.33
2019-01-08T22:50:05.429Z,87.75
2019-01-08T22:52:34.905Z,87.67
2019-01-08T22:55:03.394Z,87.34
2019-01-08T22:57:31.811Z,86.95
2019-01-08T23:00:00.140Z,87.20
2019-01-08T23:02:28.602Z,86.70
2019-01-08T23:04:56.856Z,86.84
2019-01-08T23:07:25.108Z,86.62
2019-01-08T23:09:53.492Z,87.01
2019-01-08T23:12:21.761Z,87.27
2019-01-08T23:14:50.036Z,86.92
2019-01-08T23:17:18.360Z,86.45
2019-01-08T23:19:46.604Z,86.88
2019-01-08T23:22:14.948Z,86.55
2019-01-08T23:24:43.231Z,86.57
2019-01-08T23:27:11.509Z,86.53
2019-01-08T23:29:39.776Z,86.52
2019-01-08T23:32:08.088Z,86.88
2019-01-08T23:34:36.407Z,86.68
2019-01-08T23:37:04.693Z,86.65
2019-01-08T23:39:33.265Z,86.54
2019-01-08T23:42:01.631Z,86.85
2019-01-08T23:44:29.864Z,86.73
2019-01-08T23:46:58.273Z,86.76
2019-01-08T23:49:26.576Z,86.79
2019-01-08T23:51:57.632Z,87.01
2019-01-08T23:54:26.184Z,86.91
2019-01-08T23:56:54.494Z,86.67
2019-01-08T23:59:23.955Z,86.66
